Aviation Digital Data Service (ADDS)

Output produced by METARs form (0931 UTC 25 February 2018)
found at http://aviationweather.gov/adds/metars/
 
SEGU 250900Z 24006KT 9999 FEW010 25/22 Q1011 NOSIG RMK A2986
SEGU 250430Z 2506/2606 25006KT 9999 SCT026 BKN100 
     TEMPO 2506/2508 FEW026 SCT100 
     FM251500 20005KT 9999 SCT020 SCT100 
     FM251800 15006KT 9999 FEW023 SCT100 
     TEMPO 2521/2524 8000 SHRA TX31/2520Z TN24/2510Z
       
SEMT 250900Z 20002KT 9999 OVC020 24/23 Q1012
SEMT 250430Z 2506/2606 21004KT 9999 BKN020 
     FM251500 30010KT 9999 BKN023 SCT100 
     TEMPO 2516/2519 SHRA BKN023TCU SCT100 
     FM260000 22004KT 9999 BKN020 TX29/2520Z TN24/2510Z